Time;durP1;ratioP1;P1;durP2;ratioP2;P2;SDS_P1;SDS_P2;PMS_P1;PMS_P2;Temp;Humidity;BMP_temperature;BMP_pressure;BME280_temperature;BME280_humidity;BME280_pressure;Samples;Min_cycle;Max_cycle;Signal;HPM_P1;HPM_P2
2022/03/31 00:02:12;;;;;;;8.52;3.72;;;;;;;3.64;100.00;99301.88;5963606;29;20082;-90
2022/03/31 00:05:14;;;;;;;6.93;3.15;;;;;;;3.65;100.00;99299.22;5956252;29;20162;-90
2022/03/31 00:08:18;;;;;;;6.57;3.63;;;;;;;3.62;100.00;99304.53;5969716;29;20050;-90
2022/03/31 00:11:20;;;;;;;6.22;3.10;;;;;;;3.52;100.00;99303.53;5954727;29;20047;-90
2022/03/31 00:14:22;;;;;;;8.98;3.63;;;;;;;3.51;100.00;99301.91;5956226;29;20051;-90
2022/03/31 00:17:23;;;;;;;7.70;3.58;;;;;;;3.43;100.00;99299.09;5958800;29;20047;-90
2022/03/31 00:20:26;;;;;;;5.85;3.42;;;;;;;3.43;100.00;99296.53;5971358;29;20043;-90
2022/03/31 00:23:29;;;;;;;8.32;3.42;;;;;;;3.44;100.00;99293.03;5948156;29;20759;-90
2022/03/31 00:26:31;;;;;;;9.48;3.42;;;;;;;3.45;100.00;99289.53;5958820;29;20076;-90
2022/03/31 00:29:33;;;;;;;7.22;3.92;;;;;;;3.45;100.00;99282.72;5970722;29;20573;-90
2022/03/31 00:32:35;;;;;;;7.18;3.47;;;;;;;3.44;100.00;99283.63;5953298;29;20098;-90
2022/03/31 00:35:37;;;;;;;6.55;3.38;;;;;;;3.39;100.00;99280.56;5958504;29;20408;-90
2022/03/31 00:39:28;;;;;;;6.53;3.70;;;;;;;3.35;100.00;99280.88;5953235;29;20084;-90
2022/03/31 00:42:05;;;;;;;5.68;3.40;;;;;;;3.33;100.00;99275.88;5959604;29;20046;-90
2022/03/31 00:45:15;;;;;;;8.98;3.20;;;;;;;3.28;100.00;99275.38;5955452;29;20087;-90
2022/03/31 00:48:19;;;;;;;10.23;3.70;;;;;;;3.24;100.00;99272.22;5952675;29;20057;-90
2022/03/31 00:51:21;;;;;;;9.40;3.42;;;;;;;3.22;100.00;99270.69;5957950;29;20133;-90
2022/03/31 00:54:27;;;;;;;7.80;3.30;;;;;;;3.19;100.00;99270.91;5964788;29;20046;-90
2022/03/31 00:57:29;;;;;;;8.07;3.10;;;;;;;3.13;100.00;99264.47;5974025;29;20046;-90
2022/03/31 01:00:31;;;;;;;8.25;3.97;;;;;;;3.06;100.00;99265.81;5969602;29;20618;-90
2022/03/31 01:03:35;;;;;;;6.55;3.17;;;;;;;3.01;100.00;99266.13;5975018;29;20050;-90
2022/03/31 01:06:43;;;;;;;5.63;3.30;;;;;;;3.02;100.00;99266.94;5969339;29;20046;-90
2022/03/31 01:09:45;;;;;;;7.80;3.42;;;;;;;2.98;100.00;99263.78;5955315;29;20051;-90
2022/03/31 01:12:47;;;;;;;8.00;3.47;;;;;;;2.92;100.00;99259.06;5971309;29;20145;-90
2022/03/31 01:15:49;;;;;;;8.02;3.58;;;;;;;2.86;100.00;99258.66;5953404;29;20129;-90
2022/03/31 01:18:51;;;;;;;7.25;3.35;;;;;;;2.78;100.00;99262.56;5951800;29;20126;-90
2022/03/31 01:21:53;;;;;;;6.18;3.08;;;;;;;2.73;100.00;99254.41;5956412;29;20058;-90
2022/03/31 01:24:57;;;;;;;11.95;3.70;;;;;;;2.68;100.00;99253.84;5952047;29;20082;-90
2022/03/31 01:27:59;;;;;;;9.32;3.53;;;;;;;2.61;100.00;99250.09;5975231;29;20073;-90
2022/03/31 01:31:00;;;;;;;12.77;3.25;;;;;;;2.61;100.00;99245.00;5956519;29;20081;-90
2022/03/31 01:34:02;;;;;;;8.95;3.50;;;;;;;2.56;100.00;99242.75;5951250;29;20054;-90
2022/03/31 01:37:04;;;;;;;9.25;3.53;;;;;;;2.56;100.00;99239.38;5959469;29;20501;-90
2022/03/31 01:40:08;;;;;;;7.90;3.30;;;;;;;2.52;100.00;99243.03;5957585;29;20158;-90
2022/03/31 01:43:10;;;;;;;6.55;3.97;;;;;;;2.44;100.00;99235.06;5953672;29;20070;-90
2022/03/31 01:46:12;;;;;;;8.05;3.78;;;;;;;2.39;100.00;99234.56;5954683;29;20038;-90
2022/03/31 01:49:14;;;;;;;7.50;3.75;;;;;;;2.34;100.00;99227.19;5957552;29;20054;-90
2022/03/31 01:52:17;;;;;;;6.90;3.40;;;;;;;2.32;100.00;99229.03;5950432;29;20421;-90
2022/03/31 01:55:19;;;;;;;5.82;3.38;;;;;;;2.23;100.00;99225.34;5962895;29;20042;-90
2022/03/31 01:58:20;;;;;;;7.10;3.13;;;;;;;2.21;100.00;99219.53;5965782;29;20082;-90
2022/03/31 02:01:22;;;;;;;8.82;3.78;;;;;;;2.11;100.00;99226.13;5959806;29;20492;-90
2022/03/31 02:04:24;;;;;;;6.20;3.45;;;;;;;2.09;100.00;99218.59;5964660;29;20055;-90
2022/03/31 02:07:26;;;;;;;8.57;3.20;;;;;;;2.06;100.00;99223.06;5950321;29;20057;-90
2022/03/31 02:10:28;;;;;;;7.25;3.45;;;;;;;2.01;100.00;99214.88;5955626;29;20047;-90
2022/03/31 02:13:30;;;;;;;8.23;3.83;;;;;;;1.97;100.00;99213.47;5957371;29;20050;-90
2022/03/31 02:16:32;;;;;;;8.35;3.95;;;;;;;1.97;100.00;99210.91;5957476;29;20046;-90
2022/03/31 02:19:37;;;;;;;7.95;3.63;;;;;;;1.92;100.00;99208.66;5954499;29;20069;-90
2022/03/31 02:22:39;;;;;;;7.13;3.90;;;;;;;1.90;100.00;99206.19;5956429;29;20055;-90
2022/03/31 02:25:43;;;;;;;10.73;4.32;;;;;;;1.94;100.00;99207.66;5948564;29;20127;-90
2022/03/31 02:28:45;;;;;;;5.97;3.40;;;;;;;2.00;100.00;99210.72;5954892;29;20473;-90
2022/03/31 02:31:47;;;;;;;9.20;3.88;;;;;;;2.11;100.00;99205.72;5949050;29;20057;-90
2022/03/31 02:34:51;;;;;;;5.63;3.83;;;;;;;2.19;100.00;99195.00;5947744;29;20050;-90
2022/03/31 02:37:53;;;;;;;9.35;4.15;;;;;;;2.23;100.00;99189.59;5946011;29;20047;-90
2022/03/31 02:40:55;;;;;;;9.93;4.00;;;;;;;2.29;100.00;99201.16;5932282;29;20046;-90
2022/03/31 02:43:57;;;;;;;10.73;5.07;;;;;;;2.30;100.00;99190.81;5951334;29;20042;-90
2022/03/31 02:46:58;;;;;;;9.82;4.45;;;;;;;2.40;100.00;99195.34;5937042;29;20050;-90
2022/03/31 02:50:01;;;;;;;11.35;5.40;;;;;;;2.48;100.00;99191.31;5955687;29;20046;-90
2022/03/31 02:56:23;;;;;;;10.65;6.03;;;;;;;2.63;100.00;99192.03;5944158;29;20047;-90
2022/03/31 02:59:25;;;;;;;13.25;6.60;;;;;;;2.66;100.00;99183.34;5955278;29;20552;-90
2022/03/31 03:02:27;;;;;;;15.02;6.88;;;;;;;2.76;100.00;99194.59;5955912;29;20047;-90
2022/03/31 03:05:30;;;;;;;11.73;6.97;;;;;;;2.76;100.00;99185.19;5957814;29;20051;-90
2022/03/31 03:08:32;;;;;;;14.55;8.02;;;;;;;2.77;100.00;99186.00;5965868;29;20049;-90
2022/03/31 03:11:35;;;;;;;14.52;7.70;;;;;;;2.79;100.00;99181.63;5962000;29;20134;-90
2022/03/31 03:14:36;;;;;;;14.77;8.15;;;;;;;2.82;100.00;99186.50;5958555;29;20583;-90
2022/03/31 03:17:46;;;;;;;19.23;8.52;;;;;;;2.84;100.00;99182.13;5954970;29;20926;-90
2022/03/31 03:20:47;;;;;;;15.25;7.75;;;;;;;2.84;100.00;99183.84;5949899;29;20509;-90
2022/03/31 03:23:49;;;;;;;13.10;7.78;;;;;;;2.86;100.00;99179.44;5944378;29;20497;-90
2022/03/31 03:26:51;;;;;;;17.20;7.95;;;;;;;2.88;100.00;99181.00;5950017;29;20552;-90
2022/03/31 03:29:53;;;;;;;14.90;8.07;;;;;;;2.85;100.00;99181.19;5957217;29;20051;-90
2022/03/31 03:32:55;;;;;;;17.90;9.38;;;;;;;2.92;100.00;99176.47;5944270;29;20046;-90
2022/03/31 03:36:03;;;;;;;14.23;7.63;;;;;;;2.95;100.00;99178.81;5956618;29;20691;-90
2022/03/31 03:39:06;;;;;;;13.93;7.00;;;;;;;2.88;100.00;99181.00;5960449;29;20046;-90
2022/03/31 03:42:08;;;;;;;13.43;7.93;;;;;;;2.86;100.00;99175.16;5956599;29;20490;-90
2022/03/31 03:45:11;;;;;;;14.50;8.13;;;;;;;2.86;100.00;99187.09;5958190;29;20069;-90
2022/03/31 03:48:13;;;;;;;15.18;8.20;;;;;;;2.93;100.00;99188.31;5953783;29;20460;-90
2022/03/31 03:51:14;;;;;;;15.82;8.25;;;;;;;2.92;100.00;99186.69;5957124;29;20084;-90
2022/03/31 03:54:17;;;;;;;14.23;8.45;;;;;;;2.90;100.00;99181.66;5958897;29;20075;-90
2022/03/31 03:57:19;;;;;;;15.55;8.65;;;;;;;2.91;100.00;99179.97;5960679;29;20050;-90
2022/03/31 04:00:22;;;;;;;14.60;8.48;;;;;;;2.93;100.00;99180.66;5990193;29;20058;-90
2022/03/31 04:03:23;;;;;;;16.42;8.85;;;;;;;2.93;100.00;99178.09;5968870;29;20157;-90
2022/03/31 04:06:26;;;;;;;19.05;9.43;;;;;;;2.87;100.00;99174.22;5956479;29;20498;-90
2022/03/31 04:09:28;;;;;;;14.75;9.20;;;;;;;2.93;100.00;99178.09;5959078;29;20085;-90
2022/03/31 04:12:30;;;;;;;15.70;9.07;;;;;;;2.93;100.00;99173.81;5956469;29;20058;-90
2022/03/31 04:15:31;;;;;;;15.38;8.65;;;;;;;2.95;100.00;99169.38;5949264;29;20055;-90
2022/03/31 04:18:33;;;;;;;21.20;9.57;;;;;;;2.94;100.00;99169.50;5948830;29;20049;-90
2022/03/31 04:21:36;;;;;;;21.55;10.80;;;;;;;2.96;100.00;99172.78;5958838;29;20062;-90
2022/03/31 04:24:39;;;;;;;15.88;9.70;;;;;;;2.89;100.00;99176.69;5950086;29;20047;-90
2022/03/31 04:27:41;;;;;;;20.13;9.85;;;;;;;2.88;100.00;99175.03;5954409;29;20399;-90
2022/03/31 04:30:43;;;;;;;16.42;9.65;;;;;;;2.85;100.00;99176.06;5955330;29;20058;-90
2022/03/31 04:33:45;;;;;;;17.15;9.85;;;;;;;2.82;100.00;99195.91;5971344;29;20147;-90
2022/03/31 04:36:47;;;;;;;18.45;10.13;;;;;;;2.84;100.00;99192.34;5970759;29;20488;-90
2022/03/31 04:39:49;;;;;;;18.58;10.27;;;;;;;2.82;100.00;99190.81;5952638;29;20050;-90
2022/03/31 04:42:50;;;;;;;17.42;10.65;;;;;;;2.81;100.00;99195.09;5962538;29;20046;-90
2022/03/31 04:45:53;;;;;;;17.02;10.55;;;;;;;2.75;100.00;99190.41;5958261;29;20043;-90
2022/03/31 04:48:55;;;;;;;18.52;10.73;;;;;;;2.81;100.00;99197.66;5946626;29;20046;-90
2022/03/31 04:51:56;;;;;;;20.77;10.50;;;;;;;2.79;100.00;99191.84;5950984;29;20111;-90
2022/03/31 04:54:58;;;;;;;18.25;10.40;;;;;;;2.87;100.00;99189.56;5957457;29;20129;-90
2022/03/31 04:58:01;;;;;;;18.98;11.27;;;;;;;2.85;100.00;99188.84;5957156;29;20485;-90
2022/03/31 05:01:03;;;;;;;18.05;9.95;;;;;;;2.85;100.00;99186.28;5955965;29;20119;-90
2022/03/31 05:04:05;;;;;;;19.33;9.93;;;;;;;2.84;100.00;99184.66;5993665;29;20046;-90
2022/03/31 05:07:08;;;;;;;19.38;10.27;;;;;;;2.85;100.00;99190.59;5972814;29;20641;-90
2022/03/31 05:10:10;;;;;;;17.35;10.60;;;;;;;2.89;100.00;99176.69;5961625;29;20099;-90
2022/03/31 05:13:12;;;;;;;20.67;11.57;;;;;;;2.97;100.00;99184.63;5970725;29;20090;-90
2022/03/31 05:16:14;;;;;;;18.15;10.60;;;;;;;2.96;100.00;99181.28;5957808;29;20055;-90
2022/03/31 05:19:16;;;;;;;18.35;10.23;;;;;;;3.01;100.00;99180.94;5951829;29;20055;-90
2022/03/31 05:22:18;;;;;;;22.10;11.88;;;;;;;3.14;100.00;99176.59;5968735;29;20051;-90
2022/03/31 05:25:20;;;;;;;20.23;11.40;;;;;;;3.23;100.00;99175.97;5935608;29;20078;-90
2022/03/31 05:28:22;;;;;;;20.88;10.60;;;;;;;3.34;100.00;99176.94;5939264;29;20062;-90
2022/03/31 05:31:24;;;;;;;23.30;10.48;;;;;;;3.43;100.00;99192.47;5956046;29;20051;-90
2022/03/31 05:34:26;;;;;;;22.85;10.95;;;;;;;3.48;100.00;99189.59;5951473;29;20406;-90
2022/03/31 05:37:28;;;;;;;20.67;12.10;;;;;;;3.54;100.00;99196.81;5967838;29;20046;-90
2022/03/31 05:40:30;;;;;;;20.35;10.70;;;;;;;3.62;100.00;99193.69;5957481;29;20046;-90
2022/03/31 05:43:32;;;;;;;21.17;11.18;;;;;;;3.67;100.00;99194.19;5973210;29;20110;-90
2022/03/31 05:46:34;;;;;;;20.38;10.40;;;;;;;3.81;100.00;99200.88;5957105;29;20058;-90
2022/03/31 05:49:36;;;;;;;18.85;10.77;;;;;;;3.85;100.00;99198.00;5965779;29;20132;-90
2022/03/31 05:52:40;;;;;;;18.77;11.05;;;;;;;3.86;100.00;99201.38;5963838;29;20099;-90
2022/03/31 05:55:43;;;;;;;19.10;10.98;;;;;;;3.88;100.00;99214.88;5970059;29;20062;-90
2022/03/31 05:58:45;;;;;;;18.38;10.75;;;;;;;3.94;100.00;99211.84;5973392;29;20055;-90
2022/03/31 06:01:47;;;;;;;17.92;11.18;;;;;;;4.01;100.00;99214.78;5972557;29;20162;-90
2022/03/31 06:04:49;;;;;;;19.70;11.77;;;;;;;4.01;100.00;99215.59;5956226;29;20047;-90
2022/03/31 06:07:52;;;;;;;22.50;11.40;;;;;;;4.01;100.00;99209.69;5961093;29;20808;-90
2022/03/31 06:10:55;;;;;;;22.45;12.77;;;;;;;4.06;100.00;99215.28;5954979;29;20068;-90
2022/03/31 06:13:57;;;;;;;26.25;13.82;;;;;;;4.13;100.00;99213.91;5955414;29;20070;-90
2022/03/31 06:16:59;;;;;;;27.50;13.82;;;;;;;4.15;100.00;99221.44;5954671;29;20410;-90
2022/03/31 06:20:01;;;;;;;23.52;13.13;;;;;;;4.24;100.00;99208.78;5942859;29;20051;-90
2022/03/31 06:23:04;;;;;;;30.83;15.80;;;;;;;4.25;100.00;99215.56;5954943;29;20390;-90
2022/03/31 06:26:07;;;;;;;30.08;16.65;;;;;;;4.35;100.00;99225.09;5944810;29;20387;-90
2022/03/31 06:29:09;;;;;;;32.38;16.63;;;;;;;4.22;100.00;99227.75;5948903;29;20115;-90
2022/03/31 06:32:18;;;;;;;28.33;16.67;;;;;;;4.25;100.00;99223.25;5955143;29;20058;-90
2022/03/31 06:35:21;;;;;;;30.50;16.65;;;;;;;4.29;100.00;99222.06;5943766;29;20486;-90
2022/03/31 06:38:23;;;;;;;25.90;14.65;;;;;;;4.27;100.00;99233.34;5955963;29;20053;-90
2022/03/31 06:41:25;;;;;;;25.75;14.52;;;;;;;4.26;100.00;99234.31;5952471;29;20155;-90
2022/03/31 06:44:27;;;;;;;30.13;16.10;;;;;;;4.21;100.00;99229.50;5952887;29;20063;-90
2022/03/31 06:47:29;;;;;;;33.30;16.70;;;;;;;4.27;100.00;99229.06;5969143;29;20350;-90
2022/03/31 06:50:33;;;;;;;30.80;17.23;;;;;;;4.30;100.00;99228.03;5956173;29;20392;-90
2022/03/31 06:53:39;;;;;;;32.88;17.85;;;;;;;4.26;100.00;99226.63;5950453;29;20057;-90
2022/03/31 06:56:41;;;;;;;33.53;17.40;;;;;;;4.31;100.00;99237.34;5956783;29;20482;-90
2022/03/31 06:59:43;;;;;;;33.95;18.77;;;;;;;4.26;100.00;99229.19;5968572;29;20891;-90
2022/03/31 07:02:50;;;;;;;35.65;18.02;;;;;;;4.27;100.00;99228.22;5952791;29;20584;-90
2022/03/31 07:05:53;;;;;;;34.85;18.80;;;;;;;4.25;100.00;99232.69;5957418;29;20050;-90
2022/03/31 07:08:54;;;;;;;34.13;18.02;;;;;;;4.23;100.00;99231.97;5969413;29;20057;-90
2022/03/31 07:11:56;;;;;;;32.47;17.83;;;;;;;4.37;100.00;99233.50;5961171;29;20047;-90
2022/03/31 07:14:59;;;;;;;33.45;18.25;;;;;;;4.37;100.00;99239.44;5959083;29;20525;-90
2022/03/31 07:18:03;;;;;;;30.73;16.80;;;;;;;4.31;100.00;99238.16;5957830;29;20047;-90
2022/03/31 07:21:05;;;;;;;31.30;18.17;;;;;;;4.37;100.00;99247.13;5953844;29;20574;-91
2022/03/31 07:24:07;;;;;;;31.98;17.85;;;;;;;4.51;100.00;99233.28;5960418;29;20074;-90
2022/03/31 07:27:09;;;;;;;35.40;17.83;;;;;;;4.51;100.00;99234.09;5960683;29;20130;-90
2022/03/31 07:30:13;;;;;;;31.92;17.33;;;;;;;4.62;100.00;99242.72;5967367;29;20055;-90
2022/03/31 07:33:17;;;;;;;29.27;16.58;;;;;;;4.88;100.00;99238.22;5961431;29;20058;-89
2022/03/31 07:36:20;;;;;;;30.27;16.90;;;;;;;5.19;100.00;99241.78;5954605;29;20046;-89
2022/03/31 07:39:22;;;;;;;29.80;16.50;;;;;;;5.38;100.00;99239.44;5978925;29;20067;-89
2022/03/31 07:42:24;;;;;;;28.70;15.02;;;;;;;5.38;100.00;99241.19;5951721;29;20050;-89
2022/03/31 07:45:26;;;;;;;23.40;13.88;;;;;;;5.54;100.00;99240.78;5956625;29;20131;-89
2022/03/31 07:48:28;;;;;;;21.90;11.13;;;;;;;5.67;100.00;99240.66;5967114;29;20052;-89
2022/03/31 07:51:29;;;;;;;16.27;8.73;;;;;;;5.71;100.00;99231.75;5959234;29;20058;-89
2022/03/31 07:54:31;;;;;;;18.20;9.93;;;;;;;5.95;100.00;99234.97;5957717;29;20046;-89
2022/03/31 07:57:34;;;;;;;17.38;9.82;;;;;;;6.07;100.00;99237.50;5960118;29;20454;-89
2022/03/31 08:00:36;;;;;;;16.65;10.80;;;;;;;6.24;100.00;99237.75;5958772;29;20501;-89
2022/03/31 08:03:38;;;;;;;19.58;11.85;;;;;;;6.29;100.00;99234.81;5955899;29;20042;-89
2022/03/31 08:06:40;;;;;;;15.60;11.70;;;;;;;6.33;100.00;99241.31;5960091;29;20403;-89
2022/03/31 08:09:42;;;;;;;16.80;11.20;;;;;;;6.35;100.00;99238.63;5956189;29;20110;-89
2022/03/31 08:12:45;;;;;;;14.30;9.48;;;;;;;6.38;100.00;99236.59;5952119;29;20503;-89
2022/03/31 08:15:47;;;;;;;11.95;9.02;;;;;;;6.44;100.00;99236.13;5958249;29;20557;-89
2022/03/31 08:18:50;;;;;;;15.38;9.10;;;;;;;6.45;97.16;99235.16;5957418;29;20058;-89
2022/03/31 08:21:53;;;;;;;19.70;11.57;;;;;;;6.54;95.74;99246.47;5956811;29;20051;-89
2022/03/31 08:24:54;;;;;;;28.73;12.55;;;;;;;6.62;94.42;99244.06;5968620;29;20050;-89
2022/03/31 08:27:56;;;;;;;18.60;12.05;;;;;;;6.84;92.13;99242.28;5969476;29;20557;-89
2022/03/31 08:31:00;;;;;;;19.90;13.40;;;;;;;7.04;90.48;99238.81;5958498;29;20631;-89
2022/03/31 08:34:03;;;;;;;22.13;12.45;;;;;;;7.21;89.34;99244.31;5954871;29;20051;-89
2022/03/31 08:37:05;;;;;;;25.42;11.32;;;;;;;7.48;88.54;99241.94;5940687;29;20565;-89
2022/03/31 08:40:11;;;;;;;17.05;11.13;;;;;;;7.70;86.68;99247.75;5957012;29;20417;-89
2022/03/31 08:43:13;;;;;;;13.07;8.43;;;;;;;7.75;83.48;99238.69;5972033;29;20050;-89
2022/03/31 08:46:16;;;;;;;13.93;8.02;;;;;;;7.88;85.20;99238.44;5953783;29;20047;-89
2022/03/31 08:49:19;;;;;;;15.75;10.15;;;;;;;8.06;81.22;99242.91;5958076;29;20400;-89
2022/03/31 08:52:22;;;;;;;19.38;11.70;;;;;;;8.11;79.38;99240.72;5957366;29;20041;-89
2022/03/31 08:55:24;;;;;;;17.55;11.68;;;;;;;8.11;78.89;99236.38;5938832;29;20047;-89
2022/03/31 08:58:26;;;;;;;16.15;10.55;;;;;;;8.17;78.73;99242.75;5955316;29;20043;-89
2022/03/31 09:01:28;;;;;;;14.48;8.82;;;;;;;8.27;76.17;99240.97;5960728;29;20042;-89
2022/03/31 09:04:30;;;;;;;19.05;9.55;;;;;;;8.27;78.04;99237.56;5958165;29;20050;-89
2022/03/31 09:07:33;;;;;;;18.10;9.95;;;;;;;8.36;75.44;99242.72;5954926;29;20043;-89
2022/03/31 09:10:37;;;;;;;18.40;11.77;;;;;;;8.44;76.78;99246.41;5938299;29;20046;-89
2022/03/31 09:13:40;;;;;;;18.80;11.88;;;;;;;8.39;76.71;99244.19;5956418;29;20050;-89
2022/03/31 09:16:43;;;;;;;16.40;11.35;;;;;;;8.50;74.78;99248.44;5955704;29;20106;-89
2022/03/31 09:19:46;;;;;;;20.08;11.25;;;;;;;8.48;75.16;99247.75;5957208;29;20075;-89
2022/03/31 09:22:50;;;;;;;19.80;10.95;;;;;;;8.52;74.69;99249.91;5957662;29;20070;-89
2022/03/31 09:25:52;;;;;;;17.17;11.27;;;;;;;8.57;75.10;99252.06;5956681;29;20051;-89
2022/03/31 09:28:55;;;;;;;17.77;11.27;;;;;;;8.59;76.36;99250.16;5960118;29;20071;-89
2022/03/31 09:32:13;;;;;;;26.17;12.20;;;;;;;8.72;74.05;99250.69;5965868;29;20529;-89
2022/03/31 09:35:20;;;;;;;19.77;12.88;;;;;;;8.88;74.48;99257.00;5962335;29;20573;-89
2022/03/31 09:38:22;;;;;;;20.35;12.10;;;;;;;8.91;74.49;99257.53;5956610;29;20103;-89
2022/03/31 09:41:27;;;;;;;20.92;12.38;;;;;;;8.76;73.95;99261.53;5956064;29;20098;-89
2022/03/31 09:44:29;;;;;;;20.15;11.40;;;;;;;8.78;75.72;99257.84;5955603;29;20051;-89
2022/03/31 09:47:31;;;;;;;20.95;11.95;;;;;;;8.88;72.91;99262.16;5956031;29;20074;-89
2022/03/31 09:50:36;;;;;;;19.00;11.23;;;;;;;8.95;72.45;99258.06;5957529;29;20046;-89
2022/03/31 09:53:40;;;;;;;19.77;11.35;;;;;;;8.83;72.85;99258.22;5957676;29;20042;-89
2022/03/31 09:56:42;;;;;;;21.08;12.48;;;;;;;8.52;73.51;99252.50;5959109;29;20043;-89
2022/03/31 09:59:51;;;;;;;26.35;12.90;;;;;;;8.43;74.04;99253.31;5956772;29;20103;-89
2022/03/31 10:02:54;;;;;;;18.40;12.10;;;;;;;8.41;73.92;99261.19;5957078;29;20047;-89
2022/03/31 10:06:13;;;;;;;19.40;12.32;;;;;;;8.52;75.56;99256.81;5955426;29;20058;-89
2022/03/31 10:09:15;;;;;;;23.15;12.68;;;;;;;8.57;74.86;99255.47;5955206;29;20062;-89
2022/03/31 10:12:40;;;;;;;22.05;13.23;;;;;;;8.64;74.44;99260.88;5953875;29;20047;-89
2022/03/31 10:15:44;;;;;;;21.55;12.13;;;;;;;8.72;73.52;99257.59;5953811;29;20051;-89
2022/03/31 10:18:47;;;;;;;17.92;12.30;;;;;;;8.99;72.10;99259.38;5954343;29;20050;-89
2022/03/31 10:22:08;;;;;;;18.90;12.38;;;;;;;9.16;71.50;99250.09;5957789;29;20219;-89
2022/03/31 10:25:14;;;;;;;20.15;11.68;;;;;;;9.11;69.58;99247.94;5955221;29;20894;-89
2022/03/31 10:28:21;;;;;;;19.55;11.98;;;;;;;9.00;71.27;99248.13;5955401;29;20074;-89
2022/03/31 10:31:46;;;;;;;20.23;11.40;;;;;;;9.02;70.67;99244.44;5956235;29;20058;-89
2022/03/31 10:34:50;;;;;;;17.75;11.90;;;;;;;9.24;68.45;99248.41;5955923;29;20452;-89
2022/03/31 10:37:53;;;;;;;15.35;10.52;;;;;;;9.41;66.23;99248.59;5954391;29;20061;-89
2022/03/31 10:41:05;;;;;;;16.65;9.20;;;;;;;9.41;66.25;99240.84;5955271;29;20047;-89
2022/03/31 10:44:12;;;;;;;15.35;8.80;;;;;;;9.46;66.12;99238.63;5951938;29;20103;-89
2022/03/31 10:47:14;;;;;;;11.85;8.50;;;;;;;9.63;64.71;99239.59;5956692;29;20046;-89
2022/03/31 10:50:25;;;;;;;11.20;8.43;;;;;;;9.76;65.21;99234.06;5956015;29;20333;-89
2022/03/31 10:53:28;;;;;;;10.30;7.47;;;;;;;9.68;63.64;99232.22;5954798;29;20074;-89
2022/03/31 10:56:32;;;;;;;10.52;7.85;;;;;;;9.55;62.22;99232.59;5957418;29;20046;-89
2022/03/31 10:59:35;;;;;;;8.98;6.57;;;;;;;9.58;61.54;99232.28;5970930;29;20079;-89
2022/03/31 11:02:52;;;;;;;8.38;6.15;;;;;;;9.73;61.63;99227.44;5953350;29;20095;-89
2022/03/31 11:06:15;;;;;;;9.32;6.40;;;;;;;9.86;60.05;99227.06;5956525;29;20050;-89
2022/03/31 11:09:27;;;;;;;9.55;7.05;;;;;;;10.10;62.27;99216.91;5955201;29;20051;-89
2022/03/31 11:12:29;;;;;;;12.10;6.97;;;;;;;10.35;59.94;99217.13;5965848;29;20051;-89
2022/03/31 11:15:31;;;;;;;9.80;7.32;;;;;;;10.38;59.11;99211.63;5952706;29;20054;-89
2022/03/31 11:18:33;;;;;;;7.07;5.75;;;;;;;10.55;58.70;99215.13;5951209;29;20059;-89
2022/03/31 11:21:45;;;;;;;11.27;5.88;;;;;;;10.63;58.19;99211.78;5958592;29;20038;-89
2022/03/31 11:24:47;;;;;;;9.55;5.65;;;;;;;10.74;56.18;99214.09;5957946;29;20051;-89
2022/03/31 11:27:50;;;;;;;11.45;5.80;;;;;;;10.57;54.98;99205.44;5957317;29;20103;-89
2022/03/31 11:30:54;;;;;;;9.27;6.15;;;;;;;10.22;56.48;99211.50;5965259;29;20055;-89
2022/03/31 11:33:56;;;;;;;9.48;5.90;;;;;;;9.98;58.23;99210.34;5952850;29;20204;-89
2022/03/31 11:36:58;;;;;;;10.63;6.20;;;;;;;9.85;59.03;99204.75;5970474;29;20072;-89
2022/03/31 11:40:00;;;;;;;9.65;6.28;;;;;;;10.01;57.37;99201.47;5958872;29;20035;-89
2022/03/31 11:43:08;;;;;;;9.75;5.55;;;;;;;10.14;57.11;99199.34;5967700;29;20050;-89
2022/03/31 11:46:11;;;;;;;8.77;5.07;;;;;;;10.39;55.42;99199.53;5967014;29;20488;-90
2022/03/31 11:49:31;;;;;;;8.68;5.63;;;;;;;10.56;54.92;99194.28;5961048;29;20059;-89
2022/03/31 11:52:33;;;;;;;7.73;5.23;;;;;;;10.59;53.09;99194.94;5958723;29;20503;-89
2022/03/31 11:55:35;;;;;;;8.43;5.35;;;;;;;10.55;53.06;99186.66;5963643;29;21115;-89
2022/03/31 11:58:50;;;;;;;9.00;5.10;;;;;;;10.69;53.17;99196.44;5970129;29;20077;-89
2022/03/31 12:01:52;;;;;;;6.60;4.75;;;;;;;10.86;51.04;99196.53;5955101;29;20134;-89
2022/03/31 12:04:54;;;;;;;8.52;4.63;;;;;;;10.78;49.83;99189.50;5959255;29;20058;-89
2022/03/31 12:07:57;;;;;;;8.10;5.18;;;;;;;10.88;51.40;99185.06;5962585;29;20492;-90
2022/03/31 12:10:59;;;;;;;11.57;4.53;;;;;;;11.13;48.74;99188.53;5957413;29;20545;-89
2022/03/31 12:14:02;;;;;;;8.05;5.13;;;;;;;11.21;47.95;99183.38;5959901;29;20054;-89
2022/03/31 12:17:13;;;;;;;7.35;4.38;;;;;;;11.17;46.65;99182.03;5959212;29;20606;-89
2022/03/31 12:20:16;;;;;;;6.90;4.70;;;;;;;11.14;48.66;99181.56;5960539;29;20054;-89
2022/03/31 12:23:17;;;;;;;7.70;4.20;;;;;;;11.19;46.83;99184.50;5963903;29;20047;-89
2022/03/31 12:26:22;;;;;;;8.00;5.00;;;;;;;11.31;47.02;99180.63;5958403;29;20046;-89
2022/03/31 12:29:26;;;;;;;7.25;4.70;;;;;;;11.34;46.15;99193.25;5956946;29;20058;-89
2022/03/31 12:32:30;;;;;;;7.35;4.30;;;;;;;11.40;46.49;99191.81;5956908;29;20521;-89
2022/03/31 12:35:33;;;;;;;5.70;3.88;;;;;;;11.58;46.27;99186.50;5960713;29;20080;-89
2022/03/31 12:38:46;;;;;;;7.22;4.25;;;;;;;11.64;45.33;99196.22;5956296;29;20062;-89
2022/03/31 12:41:52;;;;;;;8.90;4.47;;;;;;;11.57;44.92;99183.09;5956099;29;20054;-89
2022/03/31 12:44:53;;;;;;;8.15;4.88;;;;;;;11.23;44.13;99192.75;5951207;29;20051;-89
2022/03/31 12:47:55;;;;;;;10.63;4.35;;;;;;;11.16;44.70;99187.41;5953950;29;20058;-89
2022/03/31 12:51:01;;;;;;;6.43;4.95;;;;;;;10.93;44.93;99192.31;5955394;29;20146;-89
2022/03/31 12:54:03;;;;;;;6.10;4.13;;;;;;;11.05;44.65;99191.06;5953891;29;20038;-89
2022/03/31 12:57:26;;;;;;;7.13;4.88;;;;;;;11.14;44.75;99191.94;5954882;29;20050;-90
2022/03/31 13:00:29;;;;;;;6.90;4.30;;;;;;;11.07;44.10;99183.16;5956228;29;20414;-89
2022/03/31 13:03:31;;;;;;;6.38;4.00;;;;;;;11.20;43.44;99178.31;5948958;29;20038;-89
2022/03/31 13:06:34;;;;;;;7.78;4.35;;;;;;;10.97;43.81;99181.50;5954958;29;20617;-89
2022/03/31 13:09:36;;;;;;;5.50;3.95;;;;;;;10.99;45.73;99178.78;5954959;29;20047;-89
2022/03/31 13:12:38;;;;;;;7.07;4.50;;;;;;;11.02;43.54;99177.66;5948235;29;20047;-89
2022/03/31 13:15:41;;;;;;;7.82;3.95;;;;;;;10.94;44.30;99181.81;5949823;29;20088;-89
2022/03/31 13:18:43;;;;;;;6.25;4.10;;;;;;;10.77;44.04;99182.72;5935004;29;20047;-89
2022/03/31 13:21:45;;;;;;;7.18;3.30;;;;;;;10.56;44.35;99183.13;5950434;29;20051;-89
2022/03/31 13:24:53;;;;;;;9.52;4.00;;;;;;;10.06;44.50;99187.16;5954209;29;20054;-89
2022/03/31 13:27:55;;;;;;;5.78;3.50;;;;;;;9.68;46.29;99199.44;5966740;29;20050;-89
2022/03/31 13:31:04;;;;;;;5.82;3.38;;;;;;;9.46;47.19;99184.38;5950106;29;20054;-89
2022/03/31 13:34:10;;;;;;;4.97;3.35;;;;;;;9.22;45.52;99190.94;5951284;29;20057;-89
2022/03/31 13:37:18;;;;;;;5.95;3.33;;;;;;;9.03;47.65;99184.13;5953091;29;20065;-89
2022/03/31 13:40:20;;;;;;;4.75;3.53;;;;;;;9.02;47.09;99182.50;5956288;29;20087;-89
2022/03/31 13:43:22;;;;;;;6.50;4.03;;;;;;;9.12;48.12;99177.28;5954636;29;20066;-89
2022/03/31 13:46:24;;;;;;;9.75;5.20;;;;;;;8.83;49.86;99183.41;5940373;29;20055;-89
2022/03/31 13:49:27;;;;;;;6.80;3.58;;;;;;;8.84;47.87;99186.78;5952984;29;20092;-89
2022/03/31 13:52:29;;;;;;;6.97;3.33;;;;;;;8.73;47.01;99181.84;5950328;29;20047;-89
2022/03/31 13:55:32;;;;;;;8.23;3.53;;;;;;;8.45;48.50;99184.38;5949670;29;20405;-89
2022/03/31 14:01:57;;;;;;;5.32;3.47;;;;;;;8.56;47.56;99175.66;5949759;29;20050;-89
2022/03/31 14:05:00;;;;;;;5.57;4.07;;;;;;;8.74;47.98;99183.44;5951430;29;20039;-89
2022/03/31 14:08:03;;;;;;;6.07;4.28;;;;;;;8.76;47.40;99181.53;5951176;29;20541;-89
2022/03/31 14:11:06;;;;;;;5.20;4.03;;;;;;;8.75;47.34;99180.75;5957726;29;20058;-89
2022/03/31 14:14:10;;;;;;;6.55;4.40;;;;;;;8.87;46.38;99183.13;5949836;29;20051;-89
2022/03/31 14:17:12;;;;;;;8.23;4.13;;;;;;;8.81;47.43;99187.88;5951682;29;20042;-89
2022/03/31 14:20:13;;;;;;;7.38;4.00;;;;;;;8.79;47.98;99181.25;5944695;29;20528;-89
2022/03/31 14:23:16;;;;;;;6.95;4.13;;;;;;;8.73;46.27;99182.63;5950395;29;20174;-89